Time;durP1;ratioP1;P1;durP2;ratioP2;P2;SDS_P1;SDS_P2;PMS_P1;PMS_P2;Temp;Humidity;BMP_temperature;BMP_pressure;BME280_temperature;BME280_humidity;BME280_pressure;Samples;Min_cycle;Max_cycle;Signal;HPM_P1;HPM_P2
2022/01/24 00:02:24;;;;;;;3.17;1.48;;;;;;;4.29;50.91;103491.69;5007011;28;20077;-69
2022/01/24 00:04:50;;;;;;;4.15;1.90;;;;;;;4.67;50.00;103489.25;4991948;28;20120;-70
2022/01/24 00:07:19;;;;;;;6.50;1.73;;;;;;;4.53;49.96;103488.03;5005613;28;20463;-69
2022/01/24 00:09:45;;;;;;;3.75;2.40;;;;;;;4.52;50.14;103488.84;5020069;28;20236;-69
2022/01/24 00:12:25;;;;;;;2.83;2.40;;;;;;;4.39;50.29;103493.69;5009027;28;20049;-69
2022/01/24 00:15:50;;;;;;;6.40;2.55;;;;;;;4.40;50.67;103485.09;5003751;28;20739;-69
2022/01/24 00:17:48;;;;;;;4.95;2.45;;;;;;;4.27;50.56;103480.41;5014942;28;20038;-68
2022/01/24 00:28:09;;;;;;;3.70;2.25;;;;;;;3.55;52.77;103488.63;5006138;28;20037;-69
2022/01/24 00:30:35;;;;;;;4.90;2.03;;;;;;;3.96;52.01;103487.31;4992165;28;20486;-71
2022/01/24 00:33:00;;;;;;;4.07;1.92;;;;;;;4.32;50.87;103486.59;5004790;28;20175;-71
2022/01/24 00:35:25;;;;;;;4.82;2.25;;;;;;;4.50;50.69;103481.06;5006534;28;20041;-71
2022/01/24 00:37:59;;;;;;;3.25;2.20;;;;;;;4.36;50.67;103482.38;5005410;28;20046;-71
2022/01/24 00:40:26;;;;;;;4.00;2.25;;;;;;;4.59;49.95;103477.84;5005429;28;20033;-71
2022/01/24 00:55:47;;;;;;;3.00;1.63;;;;;;;4.46;50.33;103470.56;5010027;28;20125;-71
2022/01/24 00:58:12;;;;;;;3.65;2.05;;;;;;;4.40;50.59;103469.53;5009402;28;20499;-72
2022/01/24 01:00:38;;;;;;;4.03;2.58;;;;;;;4.56;49.89;103475.16;5009391;28;20105;-72
2022/01/24 01:03:04;;;;;;;4.93;2.47;;;;;;;4.12;50.72;103479.97;5015055;28;20152;-70
2022/01/24 01:19:03;;;;;;;6.20;1.88;;;;;;;4.65;49.65;103477.97;5010467;28;20040;-72
2022/01/24 01:21:29;;;;;;;4.20;2.00;;;;;;;4.80;49.12;103485.28;5008094;28;20045;-72
2022/01/24 01:23:57;;;;;;;5.80;2.35;;;;;;;4.69;49.13;103482.41;5022799;28;20066;-72
2022/01/24 01:28:59;;;;;;;4.25;2.55;;;;;;;4.52;49.71;103473.31;5007741;28;20125;-72
2022/01/24 01:31:45;;;;;;;4.18;2.45;;;;;;;4.33;49.99;103478.00;5007395;28;20178;-72
2022/01/24 01:56:05;;;;;;;4.05;2.30;;;;;;;4.58;49.08;103476.94;5006287;28;20030;-71
2022/01/24 01:58:31;;;;;;;2.88;2.08;;;;;;;4.63;49.26;103477.06;5001831;28;20037;-71
2022/01/24 02:00:59;;;;;;;4.25;2.20;;;;;;;4.71;48.53;103470.38;5015925;28;20034;-72
2022/01/24 02:03:27;;;;;;;3.88;2.42;;;;;;;4.46;49.10;103473.16;5006161;28;20491;-72
2022/01/24 02:05:52;;;;;;;3.17;2.00;;;;;;;4.57;49.10;103482.97;5007117;28;20408;-72
2022/01/24 02:08:21;;;;;;;3.80;2.53;;;;;;;4.54;49.04;103482.00;5005918;28;20049;-71
2022/01/24 02:10:47;;;;;;;4.55;2.22;;;;;;;4.49;49.15;103481.00;5007029;28;20033;-73
2022/01/24 02:13:12;;;;;;;4.63;2.00;;;;;;;4.48;49.24;103474.09;5006976;28;20038;-73
2022/01/24 02:15:58;;;;;;;2.78;1.73;;;;;;;4.24;49.64;103472.56;5009400;28;20037;-73
2022/01/24 02:18:35;;;;;;;5.68;2.17;;;;;;;4.06;49.92;103482.41;5024007;28;20485;-71
2022/01/24 02:21:12;;;;;;;2.28;1.77;;;;;;;4.17;49.83;103487.03;5007783;28;20030;-71
2022/01/24 02:26:11;;;;;;;5.03;3.38;;;;;;;4.24;49.58;103482.91;5009491;28;20403;-71
2022/01/24 02:33:56;;;;;;;2.97;1.40;;;;;;;4.31;49.02;103479.66;5007691;28;20145;-72
2022/01/24 02:36:24;;;;;;;4.75;2.13;;;;;;;4.35;49.10;103473.72;5007877;28;20120;-72
2022/01/24 02:49:33;;;;;;;7.85;2.75;;;;;;;4.23;48.99;103476.00;4988931;28;20034;-71
2022/01/24 02:52:11;;;;;;;3.72;2.03;;;;;;;4.26;49.50;103476.06;4988905;28;20045;-71
2022/01/24 02:54:38;;;;;;;4.20;1.80;;;;;;;4.00;49.71;103473.59;4985460;28;20301;-71
2022/01/24 02:57:06;;;;;;;2.67;1.48;;;;;;;4.02;49.63;103473.66;4987837;28;20141;-71
2022/01/24 02:59:32;;;;;;;3.65;2.50;;;;;;;4.18;48.94;103467.19;4986154;28;20514;-71
2022/01/24 03:01:58;;;;;;;2.35;1.55;;;;;;;4.06;49.31;103469.44;5001695;28;20777;-72
2022/01/24 03:04:24;;;;;;;3.00;1.88;;;;;;;4.09;48.80;103467.81;4987673;28;20125;-72
2022/01/24 03:06:50;;;;;;;5.13;2.47;;;;;;;4.09;48.99;103461.75;4982857;28;20100;-71
2022/01/24 03:09:15;;;;;;;3.22;2.30;;;;;;;4.19;48.78;103458.63;5004007;28;20032;-71
2022/01/24 03:11:59;;;;;;;4.50;2.50;;;;;;;4.38;48.06;103470.34;4990656;28;20475;-70
2022/01/24 03:14:28;;;;;;;3.30;1.90;;;;;;;3.82;49.73;103461.84;5004246;28;20053;-70
2022/01/24 03:16:54;;;;;;;4.13;2.75;;;;;;;4.31;48.54;103458.94;5002549;28;20421;-71
2022/01/24 03:19:20;;;;;;;3.90;1.95;;;;;;;4.09;49.32;103459.19;4988875;28;20034;-71
2022/01/24 03:21:46;;;;;;;3.35;2.65;;;;;;;4.22;49.02;103461.28;4984462;28;20042;-71
2022/01/24 03:24:12;;;;;;;2.75;1.90;;;;;;;3.99;49.55;103455.47;4994723;28;20088;-71
2022/01/24 03:26:38;;;;;;;5.60;1.85;;;;;;;4.12;49.20;103452.38;4989799;28;20111;-71
2022/01/24 03:29:05;;;;;;;4.32;2.33;;;;;;;3.46;49.93;103453.00;4987600;28;20488;-73
2022/01/24 03:31:32;;;;;;;3.58;2.50;;;;;;;3.73;49.38;103447.78;4988069;28;20041;-72
2022/01/24 03:33:58;;;;;;;4.75;2.35;;;;;;;4.03;49.04;103452.13;5001001;28;20042;-73
2022/01/24 03:36:23;;;;;;;5.18;2.92;;;;;;;3.94;49.15;103450.16;4985407;28;20038;-72
2022/01/24 03:38:49;;;;;;;7.13;2.90;;;;;;;4.19;48.50;103453.44;4988455;28;20030;-72
2022/01/24 03:41:15;;;;;;;3.83;2.28;;;;;;;4.29;48.65;103442.47;4971208;28;20037;-73
2022/01/24 03:43:41;;;;;;;4.10;2.63;;;;;;;3.80;49.21;103446.25;5001493;28;20072;-72
2022/01/24 03:49:08;;;;;;;3.60;2.80;;;;;;;3.64;49.72;103441.47;5004836;28;20143;-72
2022/01/24 03:51:34;;;;;;;4.75;2.83;;;;;;;3.71;49.62;103440.81;5006231;28;20168;-74
2022/01/24 03:54:01;;;;;;;3.83;2.63;;;;;;;3.69;49.90;103439.91;4985344;28;20125;-71
2022/01/24 03:56:27;;;;;;;4.07;2.55;;;;;;;4.04;49.22;103440.94;5002161;28;20030;-72
2022/01/24 03:58:52;;;;;;;3.88;2.88;;;;;;;3.46;49.99;103442.66;4985057;28;20049;-72
2022/01/24 04:01:18;;;;;;;4.05;2.55;;;;;;;4.09;48.79;103446.22;4988697;28;20117;-71
2022/01/24 04:03:43;;;;;;;5.63;2.75;;;;;;;4.13;48.77;103448.06;4990126;28;20046;-72
2022/01/24 04:06:09;;;;;;;3.88;2.63;;;;;;;3.90;49.09;103450.03;4988475;28;20408;-71
2022/01/24 04:08:34;;;;;;;4.22;3.15;;;;;;;3.86;48.83;103443.88;4985587;28;20069;-72
2022/01/24 04:11:01;;;;;;;6.63;3.13;;;;;;;4.13;48.63;103448.06;4987597;28;20044;-72
2022/01/24 04:16:22;;;;;;;5.78;2.67;;;;;;;4.14;48.54;103448.13;4989612;28;20089;-72
2022/01/24 04:24:07;;;;;;;4.95;2.95;;;;;;;3.38;49.88;103446.72;5008045;28;21821;-71
2022/01/24 04:26:34;;;;;;;4.68;3.30;;;;;;;4.08;48.64;103445.38;4999332;28;20265;-72
2022/01/24 04:29:00;;;;;;;5.10;3.25;;;;;;;4.17;48.01;103442.16;5008242;28;20048;-72
2022/01/24 04:31:26;;;;;;;4.82;3.17;;;;;;;4.20;48.03;103437.94;5010956;28;20037;-73
2022/01/24 04:33:52;;;;;;;3.20;2.88;;;;;;;4.25;47.82;103440.63;4999424;28;20042;-72
2022/01/24 04:36:19;;;;;;;3.65;2.78;;;;;;;4.06;48.25;103441.84;5001889;28;20134;-72
2022/01/24 04:38:45;;;;;;;6.50;3.28;;;;;;;4.00;48.29;103442.53;4990277;28;20092;-72
2022/01/24 04:41:20;;;;;;;5.07;3.20;;;;;;;4.05;48.50;103440.13;4991177;28;20124;-72
2022/01/24 04:43:52;;;;;;;3.80;2.90;;;;;;;4.03;48.11;103426.25;5022040;28;20164;-72
2022/01/24 04:46:42;;;;;;;6.57;3.20;;;;;;;3.77;48.80;103426.34;5017529;28;20144;-72
2022/01/24 04:54:59;;;;;;;3.85;2.90;;;;;;;3.73;48.71;103431.41;4990335;28;20098;-70
2022/01/24 04:57:00;;;;;;;5.38;3.42;;;;;;;3.88;48.18;103430.97;4980678;28;20064;-72
2022/01/24 04:59:26;;;;;;;6.10;3.50;;;;;;;3.68;48.64;103436.44;4998342;28;20046;-71
2022/01/24 05:01:51;;;;;;;6.65;3.45;;;;;;;3.04;50.43;103431.81;4987092;28;21083;-72
2022/01/24 05:04:17;;;;;;;4.65;3.15;;;;;;;3.73;49.12;103436.56;4997102;28;20034;-71
2022/01/24 05:06:43;;;;;;;4.88;3.30;;;;;;;3.66;48.70;103438.09;4994238;28;20488;-71
2022/01/24 05:09:08;;;;;;;6.20;3.65;;;;;;;3.70;48.62;103436.50;5009888;28;20036;-72
2022/01/24 05:11:41;;;;;;;5.85;3.58;;;;;;;3.92;48.43;103438.00;5009859;28;20033;-72
2022/01/24 05:24:44;;;;;;;5.93;3.67;;;;;;;3.76;48.78;103447.00;5004784;28;20030;-71
2022/01/24 05:27:10;;;;;;;8.35;4.78;;;;;;;3.81;48.70;103445.44;4987101;28;20038;-71
2022/01/24 05:29:36;;;;;;;8.25;4.40;;;;;;;3.91;48.52;103450.03;5004977;28;20117;-72
2022/01/24 05:32:02;;;;;;;6.47;4.18;;;;;;;3.75;48.71;103445.25;4988929;28;20057;-69
2022/01/24 05:34:27;;;;;;;6.97;4.03;;;;;;;3.64;48.61;103444.06;4979704;28;20038;-71
2022/01/24 05:36:53;;;;;;;8.73;4.82;;;;;;;3.79;48.59;103441.94;4994288;28;20045;-72
2022/01/24 05:39:18;;;;;;;9.32;4.15;;;;;;;4.01;47.73;103438.25;4989208;28;20041;-73
2022/01/24 05:41:44;;;;;;;6.85;3.63;;;;;;;3.92;47.76;103436.28;4995106;28;20045;-73
2022/01/24 05:44:10;;;;;;;7.90;4.35;;;;;;;4.06;47.84;103430.63;5011346;28;20060;-72
2022/01/24 05:46:35;;;;;;;9.27;4.35;;;;;;;3.92;47.82;103438.88;5009879;28;20033;-71
2022/01/24 05:49:02;;;;;;;5.50;3.97;;;;;;;3.96;47.74;103435.56;5006436;28;20041;-71
2022/01/24 05:51:29;;;;;;;4.75;3.42;;;;;;;3.83;47.84;103429.94;5007961;28;20033;-71
2022/01/24 05:53:55;;;;;;;5.72;3.88;;;;;;;3.97;47.64;103436.41;5002747;28;20034;-70
2022/01/24 05:56:21;;;;;;;6.93;4.00;;;;;;;3.78;47.96;103435.88;4990569;28;20030;-70
2022/01/24 05:58:46;;;;;;;8.32;4.50;;;;;;;3.84;47.73;103436.91;5003116;28;20070;-71
2022/01/24 06:01:12;;;;;;;6.28;3.53;;;;;;;3.93;47.40;103432.84;5009594;28;20120;-70
2022/01/24 06:03:38;;;;;;;6.78;4.40;;;;;;;3.97;47.25;103432.13;5007037;28;20038;-71
2022/01/24 06:06:03;;;;;;;8.88;4.25;;;;;;;3.99;47.20;103438.22;5007185;28;20022;-71
2022/01/24 06:08:29;;;;;;;7.15;3.95;;;;;;;4.04;47.51;103442.66;5006799;28;20570;-72
2022/01/24 06:10:58;;;;;;;7.63;4.43;;;;;;;4.07;47.21;103447.91;5004409;28;20042;-72
2022/01/24 06:13:24;;;;;;;7.80;4.13;;;;;;;4.01;47.26;103443.44;5010391;28;20461;-71
2022/01/24 06:15:50;;;;;;;9.05;5.07;;;;;;;4.11;47.04;103447.16;5007597;28;20488;-72
2022/01/24 06:18:16;;;;;;;10.55;4.93;;;;;;;4.17;46.77;103443.03;5007093;28;20046;-72
2022/01/24 06:20:43;;;;;;;8.25;4.25;;;;;;;3.78;47.61;103442.75;5006630;28;20033;-72
2022/01/24 06:23:12;;;;;;;9.05;4.72;;;;;;;3.88;47.34;103447.38;5008830;28;20037;-72
2022/01/24 06:25:37;;;;;;;9.75;5.22;;;;;;;3.53;48.11;103449.78;5009127;28;20029;-72
2022/01/24 06:28:03;;;;;;;13.90;5.47;;;;;;;3.74;47.83;103451.28;5006348;28;20481;-72
2022/01/24 06:30:29;;;;;;;9.45;5.18;;;;;;;3.99;47.17;103445.09;5008391;28;20041;-71
2022/01/24 06:32:54;;;;;;;11.82;5.00;;;;;;;4.11;46.70;103444.56;5021732;28;20049;-71
2022/01/24 06:35:20;;;;;;;10.82;6.25;;;;;;;4.00;46.92;103452.88;5007546;28;20087;-72
2022/01/24 06:37:45;;;;;;;8.82;4.95;;;;;;;4.08;47.00;103457.44;5021731;28;20041;-72
2022/01/24 06:40:12;;;;;;;9.88;5.32;;;;;;;3.54;48.17;103453.25;5023350;28;20042;-73
2022/01/24 06:42:38;;;;;;;10.70;5.80;;;;;;;3.86;47.40;103441.28;4986993;28;20051;-71
2022/01/24 06:45:04;;;;;;;12.65;6.05;;;;;;;3.83;47.51;103443.78;5006676;28;20605;-71
2022/01/24 06:47:30;;;;;;;15.70;5.88;;;;;;;4.04;46.89;103447.81;4993494;28;20562;-73
2022/01/24 06:49:56;;;;;;;13.13;6.97;;;;;;;3.78;47.71;103442.75;5009658;28;20095;-72
2022/01/24 06:52:21;;;;;;;12.85;6.15;;;;;;;3.85;47.42;103446.41;5005279;28;20046;-72
2022/01/24 06:54:47;;;;;;;13.15;6.70;;;;;;;3.75;48.19;103447.84;5006338;28;20034;-72
2022/01/24 06:57:14;;;;;;;10.80;6.57;;;;;;;3.93;47.55;103445.78;5006990;28;20042;-71
2022/01/24 06:59:42;;;;;;;16.85;6.80;;;;;;;3.74;48.22;103446.09;5005301;28;20055;-72
2022/01/24 07:02:10;;;;;;;13.25;7.63;;;;;;;3.92;47.61;103454.41;5005742;28;20045;-71
2022/01/24 07:04:39;;;;;;;13.20;7.53;;;;;;;3.74;47.88;103454.75;5014011;28;20029;-70
2022/01/24 07:07:05;;;;;;;17.30;7.18;;;;;;;3.91;47.98;103447.44;5005715;28;20045;-71
2022/01/24 07:09:31;;;;;;;14.35;6.93;;;;;;;4.08;47.89;103458.31;5007373;28;20109;-71
2022/01/24 07:11:57;;;;;;;13.90;7.00;;;;;;;3.94;48.03;103457.00;5023095;28;20052;-72
2022/01/24 07:14:22;;;;;;;16.17;8.30;;;;;;;4.10;47.39;103459.22;5006958;28;20483;-71
2022/01/24 07:19:30;;;;;;;14.65;7.10;;;;;;;3.83;48.15;103459.31;5007035;28;20037;-72
2022/01/24 07:21:59;;;;;;;16.40;8.68;;;;;;;3.93;47.75;103456.13;5005751;28;20065;-70
2022/01/24 07:24:25;;;;;;;16.48;7.22;;;;;;;4.06;47.73;103457.38;5007206;28;20045;-71
2022/01/24 07:26:50;;;;;;;20.10;8.45;;;;;;;4.06;47.61;103461.69;4987303;28;21526;-72
2022/01/24 07:29:16;;;;;;;15.32;8.43;;;;;;;4.09;47.82;103462.63;5022384;28;20115;-71
2022/01/24 07:31:42;;;;;;;12.95;6.65;;;;;;;4.13;47.72;103459.31;5005285;28;20116;-71
2022/01/24 07:34:07;;;;;;;17.65;7.53;;;;;;;4.14;47.65;103462.75;5003703;28;20565;-72
2022/01/24 07:36:33;;;;;;;15.35;7.78;;;;;;;3.80;48.16;103465.25;5004645;28;20119;-72
2022/01/24 07:38:58;;;;;;;16.58;9.07;;;;;;;3.78;48.80;103471.22;5007640;28;20046;-72
2022/01/24 07:41:29;;;;;;;20.90;8.45;;;;;;;4.01;48.45;103474.50;5023086;28;20060;-73
2022/01/24 07:43:56;;;;;;;16.88;8.75;;;;;;;4.07;47.94;103473.78;4988388;28;20125;-72
2022/01/24 07:46:22;;;;;;;16.77;8.50;;;;;;;4.06;47.91;103472.03;5004331;28;20456;-71
2022/01/24 07:48:48;;;;;;;20.17;9.35;;;;;;;3.87;48.29;103471.47;5004014;28;20351;-74
2022/01/24 07:51:15;;;;;;;21.00;10.25;;;;;;;4.05;47.68;103472.84;5005340;28;20097;-72
2022/01/24 07:53:42;;;;;;;19.50;9.93;;;;;;;3.17;49.79;103473.59;5007126;28;20052;-70
2022/01/24 07:56:08;;;;;;;19.42;10.13;;;;;;;3.75;48.54;103466.81;5005679;28;20672;-71
2022/01/24 07:58:34;;;;;;;21.17;10.02;;;;;;;3.77;48.56;103469.47;5006094;28;20431;-73
2022/01/24 08:00:59;;;;;;;17.52;8.90;;;;;;;3.35;49.44;103464.72;5022300;28;20083;-73
2022/01/24 08:03:26;;;;;;;20.40;9.85;;;;;;;3.66;48.82;103471.72;5007144;28;20506;-73
2022/01/24 08:05:52;;;;;;;21.75;9.15;;;;;;;3.68;48.73;103469.19;5005652;28;20033;-72
2022/01/24 08:08:21;;;;;;;26.08;11.63;;;;;;;3.55;49.00;103473.97;5005652;28;20037;-72
2022/01/24 08:10:47;;;;;;;22.10;9.93;;;;;;;3.37;49.24;103469.09;5003788;28;20037;-71
2022/01/24 08:13:13;;;;;;;20.63;9.85;;;;;;;3.76;48.35;103462.53;5012837;28;20038;-72
2022/01/24 08:15:40;;;;;;;21.02;10.60;;;;;;;3.69;48.32;103468.34;5004869;28;20034;-71
2022/01/24 08:18:05;;;;;;;22.40;10.45;;;;;;;3.47;49.04;103462.53;5013826;28;20136;-72
2022/01/24 08:20:33;;;;;;;19.65;9.77;;;;;;;3.78;48.95;103468.63;5009199;28;20140;-72
2022/01/24 08:23:00;;;;;;;19.88;9.52;;;;;;;3.94;48.34;103463.09;5003905;28;20045;-72
2022/01/24 08:25:26;;;;;;;19.23;11.10;;;;;;;3.84;47.92;103463.63;5009075;28;20336;-72
2022/01/24 08:27:52;;;;;;;19.10;9.13;;;;;;;4.00;47.87;103472.72;5004868;28;20045;-72
2022/01/24 08:30:21;;;;;;;20.65;10.13;;;;;;;4.16;47.85;103468.88;5022139;28;20491;-74
2022/01/24 08:32:46;;;;;;;18.80;9.82;;;;;;;3.90;48.07;103469.00;5002273;28;20643;-71
2022/01/24 08:35:14;;;;;;;19.85;9.25;;;;;;;3.80;48.57;103464.38;5004282;28;20418;-72
2022/01/24 08:37:40;;;;;;;20.70;10.15;;;;;;;4.06;48.06;103467.72;5002867;28;20818;-72
2022/01/24 08:40:07;;;;;;;19.05;9.48;;;;;;;3.91;47.95;103462.97;5006160;28;20034;-72
2022/01/24 08:42:45;;;;;;;18.75;9.82;;;;;;;3.66;48.56;103461.38;5004442;28;20387;-72
2022/01/24 08:47:56;;;;;;;17.33;8.20;;;;;;;4.08;48.11;103466.06;5011366;28;20045;-71
2022/01/24 08:50:26;;;;;;;19.30;8.70;;;;;;;4.16;47.42;103471.44;5006795;28;20034;-71
2022/01/24 08:52:59;;;;;;;18.42;8.35;;;;;;;4.25;47.29;103463.94;5006661;28;20041;-72
2022/01/24 08:55:26;;;;;;;20.98;9.55;;;;;;;3.54;48.79;103451.53;5003320;28;20125;-75
2022/01/24 08:57:52;;;;;;;24.48;11.52;;;;;;;3.87;48.31;103450.78;5003901;28;20092;-72
2022/01/24 09:00:17;;;;;;;21.08;10.40;;;;;;;4.06;48.13;103456.50;5008398;28;20041;-72
2022/01/24 09:02:43;;;;;;;18.67;8.57;;;;;;;4.07;47.93;103459.13;5007023;28;20481;-72
2022/01/24 09:05:09;;;;;;;15.43;7.50;;;;;;;3.72;48.08;103456.41;5026361;28;20030;-72
2022/01/24 09:07:34;;;;;;;15.80;8.32;;;;;;;4.00;47.62;103452.88;5008885;28;20042;-71
2022/01/24 09:10:00;;;;;;;16.13;8.25;;;;;;;3.83;48.13;103459.31;5016749;28;20037;-71
2022/01/24 09:12:26;;;;;;;15.48;8.00;;;;;;;4.00;47.84;103452.03;5010686;28;20045;-72
2022/01/24 09:14:52;;;;;;;15.95;7.55;;;;;;;3.78;48.17;103446.25;5025506;28;20184;-71
2022/01/24 09:17:18;;;;;;;18.90;8.23;;;;;;;3.57;49.14;103451.63;4982177;28;20042;-72
2022/01/24 09:19:43;;;;;;;13.82;7.80;;;;;;;3.68;48.17;103453.69;5004846;28;20033;-72
2022/01/24 09:22:09;;;;;;;15.50;8.75;;;;;;;3.58;48.85;103450.81;5009255;28;20038;-70
2022/01/24 09:24:36;;;;;;;17.58;8.90;;;;;;;3.90;47.96;103463.81;5008817;28;20618;-72
2022/01/24 09:27:02;;;;;;;15.95;7.97;;;;;;;3.56;49.05;103460.22;5008943;28;20525;-71
2022/01/24 09:29:28;;;;;;;16.33;7.45;;;;;;;3.75;48.65;103463.38;5008002;28;20041;-72
2022/01/24 09:31:53;;;;;;;15.52;7.88;;;;;;;4.15;47.73;103468.00;5011214;28;20044;-72
2022/01/24 09:34:20;;;;;;;13.40;7.47;;;;;;;4.19;47.40;103458.63;5016292;28;20030;-72
2022/01/24 09:36:47;;;;;;;20.00;7.40;;;;;;;3.84;48.10;103455.00;5008517;28;20022;-73
2022/01/24 09:39:14;;;;;;;13.38;7.25;;;;;;;3.84;48.18;103466.22;5005708;28;20029;-72
2022/01/24 09:41:40;;;;;;;14.07;7.53;;;;;;;4.15;47.72;103461.94;5023620;28;20108;-72
2022/01/24 09:44:06;;;;;;;14.40;7.75;;;;;;;4.35;47.36;103468.56;5008994;28;20109;-72
2022/01/24 09:46:33;;;;;;;14.63;8.65;;;;;;;3.79;48.06;103472.97;5010027;28;20107;-72
2022/01/24 09:48:58;;;;;;;15.88;8.00;;;;;;;4.20;47.77;103470.72;5007786;28;22523;-73
2022/01/24 09:51:24;;;;;;;14.95;8.15;;;;;;;4.29;47.18;103470.09;5016491;28;20090;-74
2022/01/24 09:53:50;;;;;;;13.73;8.10;;;;;;;4.38;46.49;103468.63;5005661;28;20044;-72
2022/01/24 09:56:17;;;;;;;15.68;8.88;;;;;;;4.24;47.37;103477.72;4990299;28;20029;-71
2022/01/24 09:58:43;;;;;;;16.80;8.13;;;;;;;3.78;48.48;103476.38;5007566;28;20953;-73
2022/01/24 10:01:08;;;;;;;17.13;8.27;;;;;;;4.21;47.15;103477.66;5006581;28;20040;-72
2022/01/24 10:03:36;;;;;;;19.48;8.25;;;;;;;4.33;47.15;103477.13;4999206;28;20033;-71
2022/01/24 10:06:02;;;;;;;14.75;7.82;;;;;;;3.90;47.71;103474.19;5024428;28;20033;-72
2022/01/24 10:08:29;;;;;;;16.88;7.72;;;;;;;3.91;47.87;103475.91;5005974;28;20040;-71
2022/01/24 10:10:57;;;;;;;16.55;8.52;;;;;;;4.11;47.37;103475.63;5014373;28;20092;-71
2022/01/24 10:16:33;;;;;;;18.33;9.13;;;;;;;4.13;47.54;103484.31;5010205;28;20052;-71
2022/01/24 10:19:02;;;;;;;15.10;7.78;;;;;;;4.01;47.82;103477.97;5024420;28;20388;-71
2022/01/24 10:21:28;;;;;;;18.85;7.30;;;;;;;4.22;47.33;103479.41;5024144;28;20048;-71
2022/01/24 10:23:55;;;;;;;19.52;9.13;;;;;;;4.36;46.90;103478.09;5008677;28;20041;-73
2022/01/24 10:26:23;;;;;;;14.00;7.30;;;;;;;4.51;46.43;103474.16;5008251;28;20042;-71
2022/01/24 10:28:50;;;;;;;23.02;9.82;;;;;;;4.48;46.98;103481.84;4992233;28;20494;-71
2022/01/24 10:31:24;;;;;;;16.23;9.15;;;;;;;4.34;47.08;103474.59;5008199;28;20053;-71
2022/01/24 10:34:01;;;;;;;19.83;9.02;;;;;;;4.28;47.08;103469.22;5005405;28;20060;-71
2022/01/24 10:36:57;;;;;;;15.73;8.02;;;;;;;4.39;46.81;103467.81;5006990;28;20049;-71
2022/01/24 10:39:32;;;;;;;17.52;7.75;;;;;;;4.07;47.59;103478.97;5004412;28;20053;-71
2022/01/24 10:45:11;;;;;;;16.02;8.07;;;;;;;4.39;46.50;103477.28;5023948;28;20029;-73
2022/01/24 10:47:44;;;;;;;16.20;8.23;;;;;;;4.26;46.64;103475.19;5011169;28;20054;-72
2022/01/24 10:50:11;;;;;;;15.20;7.72;;;;;;;4.25;46.94;103474.28;5021934;28;20033;-71
2022/01/24 10:52:38;;;;;;;20.92;9.10;;;;;;;4.29;47.23;103475.28;5009602;28;20042;-72
2022/01/24 10:55:16;;;;;;;20.65;8.82;;;;;;;4.14;47.35;103467.94;5005188;28;20037;-71
2022/01/24 10:57:44;;;;;;;15.43;7.63;;;;;;;4.49;46.48;103475.81;5023251;28;20047;-73
2022/01/24 11:00:13;;;;;;;15.25;7.82;;;;;;;4.64;45.82;103468.47;5006136;28;20128;-71
2022/01/24 11:02:41;;;;;;;16.23;9.18;;;;;;;4.32;46.62;103465.88;5005076;28;20042;-72
2022/01/24 11:05:24;;;;;;;19.83;7.53;;;;;;;4.59;46.18;103467.47;5007486;28;20478;-71
2022/01/24 11:07:52;;;;;;;;;;;;;;;4.78;46.04;103461.91;5003435;28;20086;-71
2022/01/24 11:10:18;;;;;;;18.55;8.25;;;;;;;4.31;47.23;103466.72;5023638;28;20395;-72
2022/01/24 11:12:44;;;;;;;14.38;8.00;;;;;;;4.53;46.41;103459.53;5005673;28;20037;-73
2022/01/24 11:15:12;;;;;;;15.02;8.27;;;;;;;4.81;45.53;103454.25;5023965;28;20423;-73
2022/01/24 11:17:39;;;;;;;14.45;7.43;;;;;;;4.68;45.29;103454.75;5013301;28;20502;-71
2022/01/24 11:20:06;;;;;;;25.83;10.05;;;;;;;4.83;45.40;103455.16;5006331;28;20034;-71
2022/01/24 11:22:34;;;;;;;17.67;8.52;;;;;;;4.79;45.13;103448.13;5005154;28;20042;-72
2022/01/24 11:25:04;;;;;;;22.88;11.65;;;;;;;4.97;45.30;103445.16;5005074;28;20033;-71
2022/01/24 11:27:30;;;;;;;16.35;8.35;;;;;;;5.16;44.95;103449.06;5006509;28;20049;-71
2022/01/24 11:29:59;;;;;;;14.88;7.72;;;;;;;4.49;45.86;103447.34;5006178;28;20533;-72
2022/01/24 11:32:28;;;;;;;13.43;8.02;;;;;;;4.91;45.40;103454.50;5005902;28;20057;-71
2022/01/24 11:34:55;;;;;;;20.60;8.25;;;;;;;4.39;46.58;103449.69;5006349;28;20033;-72
2022/01/24 11:37:50;;;;;;;18.50;9.10;;;;;;;4.72;45.75;103441.06;5006438;28;20256;-74
2022/01/24 11:40:20;;;;;;;13.68;8.07;;;;;;;4.81;45.31;103443.88;5006587;28;20049;-72
2022/01/24 11:42:47;;;;;;;15.77;7.22;;;;;;;4.78;45.29;103448.97;5004891;28;20502;-72
2022/01/24 11:45:18;;;;;;;15.63;7.20;;;;;;;4.87;45.06;103432.78;5009049;28;20121;-72
2022/01/24 11:47:46;;;;;;;12.18;8.13;;;;;;;5.14;44.51;103435.19;5002553;28;20066;-72
2022/01/24 11:50:27;;;;;;;13.57;6.85;;;;;;;5.12;44.52;103431.69;5005141;28;20040;-72
2022/01/24 11:52:56;;;;;;;16.27;8.10;;;;;;;4.90;44.83;103421.63;5004334;28;20048;-72
2022/01/24 11:55:34;;;;;;;20.88;8.77;;;;;;;4.62;44.88;103424.38;5002235;28;20091;-73
2022/01/24 11:58:09;;;;;;;19.90;8.18;;;;;;;4.95;44.53;103420.06;5007507;28;20160;-74
2022/01/24 12:00:44;;;;;;;14.18;7.85;;;;;;;4.83;44.89;103421.47;5003918;28;20041;-72
2022/01/24 12:03:28;;;;;;;16.40;7.10;;;;;;;4.87;45.11;103427.59;5016331;28;20044;-72
2022/01/24 12:05:56;;;;;;;16.08;7.80;;;;;;;4.84;44.76;103424.94;4993700;28;20034;-72
2022/01/24 12:08:43;;;;;;;18.60;7.97;;;;;;;4.81;44.82;103425.75;5002975;28;20061;-72
2022/01/24 12:11:23;;;;;;;17.20;7.97;;;;;;;4.67;45.05;103423.63;5006836;28;20123;-71
2022/01/24 12:13:53;;;;;;;15.93;8.02;;;;;;;4.17;46.50;103431.81;4986411;28;20124;-72
2022/01/24 12:16:21;;;;;;;14.88;7.47;;;;;;;4.18;46.37;103430.97;5002680;28;20507;-73
2022/01/24 12:18:49;;;;;;;15.50;8.05;;;;;;;4.57;45.53;103420.81;5018706;28;20042;-73
2022/01/24 12:21:26;;;;;;;17.67;8.60;;;;;;;4.75;45.24;103422.13;5019719;28;20045;-72
2022/01/24 12:23:55;;;;;;;15.90;6.88;;;;;;;4.78;44.74;103420.47;5011309;28;20060;-73
2022/01/24 12:26:25;;;;;;;15.68;7.63;;;;;;;4.46;45.10;103417.06;5006434;28;20099;-72
2022/01/24 12:29:03;;;;;;;19.13;9.15;;;;;;;4.62;44.69;103415.72;5004400;28;21452;-73
2022/01/24 12:31:52;;;;;;;15.35;7.80;;;;;;;4.64;45.45;103416.66;5003334;28;20100;-73
2022/01/24 12:34:27;;;;;;;16.10;8.13;;;;;;;4.75;44.80;103397.06;5001901;28;20104;-73
2022/01/24 12:37:00;;;;;;;23.38;9.25;;;;;;;4.94;44.08;103400.13;5003279;28;20522;-72
2022/01/24 12:39:43;;;;;;;17.95;7.63;;;;;;;4.88;43.40;103399.97;5006692;28;20502;-72
2022/01/24 12:42:19;;;;;;;18.23;8.65;;;;;;;4.77;42.87;103397.13;5007471;28;20045;-72
2022/01/24 12:47:26;;;;;;;19.75;8.68;;;;;;;4.54;44.16;103401.69;5007655;28;20463;-72
2022/01/24 12:49:52;;;;;;;17.42;7.97;;;;;;;3.89;45.65;103387.03;5022576;28;20412;-72
2022/01/24 12:52:24;;;;;;;15.75;7.45;;;;;;;4.07;44.71;103389.25;5007746;28;20394;-72
2022/01/24 12:54:51;;;;;;;;;;;;;;;4.68;43.24;103387.41;5005237;28;20179;-73
2022/01/24 12:57:20;;;;;;;14.52;8.00;;;;;;;4.51;43.39;103388.69;5009523;28;19924;-73
2022/01/24 12:59:58;;;;;;;13.73;7.03;;;;;;;3.76;44.58;103384.91;5007717;28;20061;-72
2022/01/24 13:02:29;;;;;;;15.07;7.72;;;;;;;4.20;43.39;103372.34;5012954;28;20061;-71
2022/01/24 13:05:05;;;;;;;15.68;7.50;;;;;;;4.48;42.99;103375.66;5007640;28;20038;-71
2022/01/24 13:07:32;;;;;;;13.57;6.75;;;;;;;4.48;42.77;103376.53;5015431;28;20052;-71
2022/01/24 13:10:06;;;;;;;16.77;7.60;;;;;;;4.47;42.91;103376.50;5008033;28;20207;-72
2022/01/24 13:12:32;;;;;;;15.75;6.18;;;;;;;4.21;42.82;103358.56;5009020;28;20546;-72
2022/01/24 13:15:02;;;;;;;16.25;6.72;;;;;;;4.43;42.87;103366.06;5012503;28;20017;-72
2022/01/24 13:23:05;;;;;;;12.90;6.35;;;;;;;4.51;42.86;103362.78;5009364;28;20041;-72
2022/01/24 13:25:40;;;;;;;16.65;7.93;;;;;;;4.72;42.45;103367.59;5009152;28;20033;-70
2022/01/24 13:28:11;;;;;;;14.13;7.15;;;;;;;4.16;42.76;103366.22;5006868;28;20084;-72
2022/01/24 13:30:40;;;;;;;14.13;5.97;;;;;;;4.67;42.22;103364.91;5007148;28;20502;-72
2022/01/24 13:33:08;;;;;;;10.18;6.10;;;;;;;4.40;42.25;103363.38;5005747;28;20073;-73
2022/01/24 13:35:36;;;;;;;16.33;7.55;;;;;;;4.53;42.27;103355.94;5006356;28;20076;-71
2022/01/24 13:38:14;;;;;;;12.95;5.88;;;;;;;4.56;41.88;103358.59;5003937;28;20553;-71
2022/01/24 13:40:52;;;;;;;14.00;7.03;;;;;;;4.72;42.00;103359.84;5022032;28;20697;-73